sensor_id;sensor_type;location;lat;lon;timestamp;temperature;humidity
584;HTU21D;27024;54.068;12.116;2023-07-16T00:00:44;22.78;118.99
584;HTU21D;27024;54.068;12.116;2023-07-16T00:03:11;22.81;118.99
584;HTU21D;27024;54.068;12.116;2023-07-16T00:05:38;22.80;118.99
584;HTU21D;27024;54.068;12.116;2023-07-16T00:08:05;22.69;118.99
584;HTU21D;27024;54.068;12.116;2023-07-16T00:10:36;22.77;118.99
584;HTU21D;27024;54.068;12.116;2023-07-16T00:13:04;22.62;118.99
584;HTU21D;27024;54.068;12.116;2023-07-16T00:15:31;22.60;118.99
584;HTU21D;27024;54.068;12.116;2023-07-16T00:17:58;22.57;118.99
584;HTU21D;27024;54.068;12.116;2023-07-16T00:20:25;22.52;118.99
584;HTU21D;27024;54.068;12.116;2023-07-16T00:22:52;22.49;118.99
584;HTU21D;27024;54.068;12.116;2023-07-16T00:25:19;22.37;118.99
584;HTU21D;27024;54.068;12.116;2023-07-16T00:27:46;22.24;118.99
584;HTU21D;27024;54.068;12.116;2023-07-16T00:30:13;22.12;118.99
584;HTU21D;27024;54.068;12.116;2023-07-16T00:32:39;22.17;118.99
584;HTU21D;27024;54.068;12.116;2023-07-16T00:35:07;22.06;118.99
584;HTU21D;27024;54.068;12.116;2023-07-16T00:37:34;22.01;118.99
584;HTU21D;27024;54.068;12.116;2023-07-16T00:40:01;22.02;118.99
584;HTU21D;27024;54.068;12.116;2023-07-16T00:42:28;21.96;118.99
584;HTU21D;27024;54.068;12.116;2023-07-16T00:44:55;21.87;118.99
584;HTU21D;27024;54.068;12.116;2023-07-16T00:47:22;21.79;118.99
584;HTU21D;27024;54.068;12.116;2023-07-16T00:49:50;21.73;118.99
584;HTU21D;27024;54.068;12.116;2023-07-16T00:52:18;21.53;118.99
584;HTU21D;27024;54.068;12.116;2023-07-16T00:54:48;21.49;118.99
584;HTU21D;27024;54.068;12.116;2023-07-16T00:57:15;21.47;118.99
584;HTU21D;27024;54.068;12.116;2023-07-16T00:59:43;21.54;118.99
584;HTU21D;27024;54.068;12.116;2023-07-16T01:02:10;21.37;118.99
584;HTU21D;27024;54.068;12.116;2023-07-16T01:04:37;21.34;118.99
584;HTU21D;27024;54.068;12.116;2023-07-16T01:07:06;21.35;118.99
584;HTU21D;27024;54.068;12.116;2023-07-16T01:09:37;21.36;118.99
584;HTU21D;27024;54.068;12.116;2023-07-16T01:12:09;21.32;118.99
584;HTU21D;27024;54.068;12.116;2023-07-16T01:14:37;21.32;118.99
584;HTU21D;27024;54.068;12.116;2023-07-16T01:17:05;21.28;118.99
584;HTU21D;27024;54.068;12.116;2023-07-16T01:19:34;21.21;118.99
584;HTU21D;27024;54.068;12.116;2023-07-16T01:22:26;21.09;118.99
584;HTU21D;27024;54.068;12.116;2023-07-16T01:28:17;21.11;118.99
584;HTU21D;27024;54.068;12.116;2023-07-16T01:30:49;21.02;118.99
584;HTU21D;27024;54.068;12.116;2023-07-16T01:33:19;20.95;118.99
584;HTU21D;27024;54.068;12.116;2023-07-16T01:35:47;20.91;118.99
584;HTU21D;27024;54.068;12.116;2023-07-16T01:38:16;20.95;118.99
584;HTU21D;27024;54.068;12.116;2023-07-16T01:40:45;20.93;118.99
584;HTU21D;27024;54.068;12.116;2023-07-16T01:43:12;20.81;118.99
584;HTU21D;27024;54.068;12.116;2023-07-16T01:45:39;20.87;118.99
584;HTU21D;27024;54.068;12.116;2023-07-16T01:48:35;20.76;118.99
584;HTU21D;27024;54.068;12.116;2023-07-16T01:51:02;20.78;118.99
584;HTU21D;27024;54.068;12.116;2023-07-16T01:53:30;20.62;118.99
584;HTU21D;27024;54.068;12.116;2023-07-16T01:55:58;20.65;118.99
584;HTU21D;27024;54.068;12.116;2023-07-16T01:58:26;20.49;118.99
584;HTU21D;27024;54.068;12.116;2023-07-16T02:00:53;20.26;118.99
584;HTU21D;27024;54.068;12.116;2023-07-16T02:03:20;20.07;118.99
584;HTU21D;27024;54.068;12.116;2023-07-16T02:05:48;20.15;118.99
584;HTU21D;27024;54.068;12.116;2023-07-16T02:08:14;20.05;118.99
584;HTU21D;27024;54.068;12.116;2023-07-16T02:10:42;20.04;118.99
584;HTU21D;27024;54.068;12.116;2023-07-16T02:13:09;19.91;118.99
584;HTU21D;27024;54.068;12.116;2023-07-16T02:15:36;19.95;118.99
584;HTU21D;27024;54.068;12.116;2023-07-16T02:18:04;19.84;118.99
584;HTU21D;27024;54.068;12.116;2023-07-16T02:20:31;19.76;118.99
584;HTU21D;27024;54.068;12.116;2023-07-16T02:22:57;19.75;118.99
584;HTU21D;27024;54.068;12.116;2023-07-16T02:25:24;19.68;118.99
584;HTU21D;27024;54.068;12.116;2023-07-16T02:27:52;19.48;118.99
584;HTU21D;27024;54.068;12.116;2023-07-16T02:30:19;19.53;118.99
584;HTU21D;27024;54.068;12.116;2023-07-16T02:32:46;19.45;118.99
584;HTU21D;27024;54.068;12.116;2023-07-16T02:35:13;19.35;118.99
584;HTU21D;27024;54.068;12.116;2023-07-16T02:37:40;19.38;118.99
584;HTU21D;27024;54.068;12.116;2023-07-16T02:40:08;19.26;118.99
584;HTU21D;27024;54.068;12.116;2023-07-16T02:42:35;19.17;118.99
584;HTU21D;27024;54.068;12.116;2023-07-16T02:45:02;19.21;118.99
584;HTU21D;27024;54.068;12.116;2023-07-16T02:47:28;19.03;118.99
584;HTU21D;27024;54.068;12.116;2023-07-16T02:49:55;19.00;118.99
584;HTU21D;27024;54.068;12.116;2023-07-16T02:52:22;19.03;118.99
584;HTU21D;27024;54.068;12.116;2023-07-16T02:54:50;19.00;118.99
584;HTU21D;27024;54.068;12.116;2023-07-16T02:57:17;18.98;118.99
584;HTU21D;27024;54.068;12.116;2023-07-16T02:59:43;18.93;118.99
584;HTU21D;27024;54.068;12.116;2023-07-16T03:02:10;18.86;118.99
584;HTU21D;27024;54.068;12.116;2023-07-16T03:04:37;18.80;118.99
584;HTU21D;27024;54.068;12.116;2023-07-16T03:07:05;18.83;118.99
584;HTU21D;27024;54.068;12.116;2023-07-16T03:09:32;18.81;118.99
584;HTU21D;27024;54.068;12.116;2023-07-16T03:11:58;18.79;118.99
584;HTU21D;27024;54.068;12.116;2023-07-16T03:14:25;18.77;118.99
584;HTU21D;27024;54.068;12.116;2023-07-16T03:16:52;18.74;118.99
584;HTU21D;27024;54.068;12.116;2023-07-16T03:19:19;18.69;118.99
584;HTU21D;27024;54.068;12.116;2023-07-16T03:21:46;18.78;118.99
584;HTU21D;27024;54.068;12.116;2023-07-16T03:24:15;18.53;118.99
584;HTU21D;27024;54.068;12.116;2023-07-16T03:26:42;18.59;118.99
584;HTU21D;27024;54.068;12.116;2023-07-16T03:29:09;18.52;118.99
584;HTU21D;27024;54.068;12.116;2023-07-16T03:31:36;18.54;118.99
584;HTU21D;27024;54.068;12.116;2023-07-16T03:34:03;18.54;118.99
584;HTU21D;27024;54.068;12.116;2023-07-16T03:36:30;18.39;118.99
584;HTU21D;27024;54.068;12.116;2023-07-16T03:38:57;18.41;118.99
584;HTU21D;27024;54.068;12.116;2023-07-16T03:41:24;18.41;118.99
584;HTU21D;27024;54.068;12.116;2023-07-16T03:43:51;18.43;118.99
584;HTU21D;27024;54.068;12.116;2023-07-16T03:46:17;18.40;118.99
584;HTU21D;27024;54.068;12.116;2023-07-16T03:48:45;18.39;118.99
584;HTU21D;27024;54.068;12.116;2023-07-16T03:51:12;18.32;118.99
584;HTU21D;27024;54.068;12.116;2023-07-16T03:53:38;18.39;118.99
584;HTU21D;27024;54.068;12.116;2023-07-16T03:56:05;18.39;118.99
584;HTU21D;27024;54.068;12.116;2023-07-16T03:58:32;18.34;118.99
584;HTU21D;27024;54.068;12.116;2023-07-16T04:00:59;18.34;118.99
584;HTU21D;27024;54.068;12.116;2023-07-16T04:03:26;18.30;118.99
584;HTU21D;27024;54.068;12.116;2023-07-16T04:06:03;18.22;118.99
584;HTU21D;27024;54.068;12.116;2023-07-16T04:08:30;18.18;118.99
584;HTU21D;27024;54.068;12.116;2023-07-16T04:10:58;18.14;118.99
584;HTU21D;27024;54.068;12.116;2023-07-16T04:13:25;18.10;118.99
584;HTU21D;27024;54.068;12.116;2023-07-16T04:15:51;18.04;118.99
584;HTU21D;27024;54.068;12.116;2023-07-16T04:18:21;17.93;118.99
584;HTU21D;27024;54.068;12.116;2023-07-16T04:20:48;17.89;118.99
584;HTU21D;27024;54.068;12.116;2023-07-16T04:23:15;17.94;118.99
584;HTU21D;27024;54.068;12.116;2023-07-16T04:25:42;17.96;118.99
584;HTU21D;27024;54.068;12.116;2023-07-16T04:28:11;17.94;118.99
584;HTU21D;27024;54.068;12.116;2023-07-16T04:30:38;17.91;118.99
584;HTU21D;27024;54.068;12.116;2023-07-16T04:33:05;17.78;118.99
584;HTU21D;27024;54.068;12.116;2023-07-16T04:35:32;17.88;118.99
584;HTU21D;27024;54.068;12.116;2023-07-16T04:38:00;17.88;118.99
584;HTU21D;27024;54.068;12.116;2023-07-16T04:40:29;17.92;118.99
584;HTU21D;27024;54.068;12.116;2023-07-16T04:42:56;17.88;118.99
584;HTU21D;27024;54.068;12.116;2023-07-16T04:45:23;17.88;118.99
584;HTU21D;27024;54.068;12.116;2023-07-16T04:47:50;17.83;118.99
584;HTU21D;27024;54.068;12.116;2023-07-16T04:50:17;17.81;118.99
584;HTU21D;27024;54.068;12.116;2023-07-16T04:52:44;17.83;118.99
584;HTU21D;27024;54.068;12.116;2023-07-16T04:55:10;17.83;118.99
584;HTU21D;27024;54.068;12.116;2023-07-16T04:57:39;17.80;118.99
584;HTU21D;27024;54.068;12.116;2023-07-16T05:00:06;17.81;118.99
584;HTU21D;27024;54.068;12.116;2023-07-16T05:02:34;17.83;118.99
584;HTU21D;27024;54.068;12.116;2023-07-16T05:05:01;17.83;118.99
584;HTU21D;27024;54.068;12.116;2023-07-16T05:07:28;17.91;118.99
584;HTU21D;27024;54.068;12.116;2023-07-16T05:09:55;18.03;118.99
584;HTU21D;27024;54.068;12.116;2023-07-16T05:12:22;18.11;118.99
584;HTU21D;27024;54.068;12.116;2023-07-16T05:14:48;18.19;118.99
584;HTU21D;27024;54.068;12.116;2023-07-16T05:17:15;18.11;118.99
584;HTU21D;27024;54.068;12.116;2023-07-16T05:19:42;18.12;118.99
584;HTU21D;27024;54.068;12.116;2023-07-16T05:22:09;18.23;118.99
584;HTU21D;27024;54.068;12.116;2023-07-16T05:24:36;18.28;118.99
584;HTU21D;27024;54.068;12.116;2023-07-16T05:27:03;18.36;118.99
584;HTU21D;27024;54.068;12.116;2023-07-16T05:29:30;18.33;118.99
584;HTU21D;27024;54.068;12.116;2023-07-16T05:31:57;18.29;118.99
584;HTU21D;27024;54.068;12.116;2023-07-16T05:34:24;18.40;118.99
584;HTU21D;27024;54.068;12.116;2023-07-16T05:36:53;18.53;118.99
584;HTU21D;27024;54.068;12.116;2023-07-16T05:39:21;18.52;118.99
584;HTU21D;27024;54.068;12.116;2023-07-16T05:41:48;18.59;118.99
584;HTU21D;27024;54.068;12.116;2023-07-16T05:44:15;18.47;118.99
584;HTU21D;27024;54.068;12.116;2023-07-16T05:46:42;18.54;118.99
584;HTU21D;27024;54.068;12.116;2023-07-16T05:49:09;18.58;118.99
584;HTU21D;27024;54.068;12.116;2023-07-16T05:51:36;18.67;118.99
584;HTU21D;27024;54.068;12.116;2023-07-16T05:54:03;18.77;118.99
584;HTU21D;27024;54.068;12.116;2023-07-16T05:56:30;18.84;118.99
584;HTU21D;27024;54.068;12.116;2023-07-16T05:58:57;18.93;118.99
584;HTU21D;27024;54.068;12.116;2023-07-16T06:01:24;18.73;118.99
584;HTU21D;27024;54.068;12.116;2023-07-16T06:03:50;18.95;118.99
584;HTU21D;27024;54.068;12.116;2023-07-16T06:06:18;18.89;118.99
584;HTU21D;27024;54.068;12.116;2023-07-16T06:08:45;18.82;118.99
584;HTU21D;27024;54.068;12.116;2023-07-16T06:11:12;18.80;118.99
584;HTU21D;27024;54.068;12.116;2023-07-16T06:13:39;18.96;118.99
584;HTU21D;27024;54.068;12.116;2023-07-16T06:16:06;19.25;118.99
584;HTU21D;27024;54.068;12.116;2023-07-16T06:18:33;19.28;118.99
584;HTU21D;27024;54.068;12.116;2023-07-16T06:21:00;19.60;118.99
584;HTU21D;27024;54.068;12.116;2023-07-16T06:23:27;19.57;118.99
584;HTU21D;27024;54.068;12.116;2023-07-16T06:25:55;19.82;118.99
584;HTU21D;27024;54.068;12.116;2023-07-16T06:28:22;19.87;118.99
584;HTU21D;27024;54.068;12.116;2023-07-16T06:30:50;19.81;118.99
584;HTU21D;27024;54.068;12.116;2023-07-16T06:33:18;19.99;118.99
584;HTU21D;27024;54.068;12.116;2023-07-16T06:35:46;19.95;118.99
584;HTU21D;27024;54.068;12.116;2023-07-16T06:38:14;19.91;118.99
584;HTU21D;27024;54.068;12.116;2023-07-16T06:40:51;20.31;118.99
584;HTU21D;27024;54.068;12.116;2023-07-16T06:43:18;20.31;118.99
584;HTU21D;27024;54.068;12.116;2023-07-16T06:45:46;20.33;118.99
584;HTU21D;27024;54.068;12.116;2023-07-16T06:48:12;20.50;118.99
584;HTU21D;27024;54.068;12.116;2023-07-16T06:50:40;20.77;118.99
584;HTU21D;27024;54.068;12.116;2023-07-16T06:53:06;20.53;118.99
584;HTU21D;27024;54.068;12.116;2023-07-16T06:55:33;20.66;118.99
584;HTU21D;27024;54.068;12.116;2023-07-16T06:58:01;20.80;118.99
584;HTU21D;27024;54.068;12.116;2023-07-16T07:00:28;21.00;118.99
584;HTU21D;27024;54.068;12.116;2023-07-16T07:02:55;21.21;118.99
584;HTU21D;27024;54.068;12.116;2023-07-16T07:05:22;21.31;118.99
584;HTU21D;27024;54.068;12.116;2023-07-16T07:07:49;21.31;118.99
584;HTU21D;27024;54.068;12.116;2023-07-16T07:10:15;21.73;118.99
584;HTU21D;27024;54.068;12.116;2023-07-16T07:12:42;21.82;118.99
584;HTU21D;27024;54.068;12.116;2023-07-16T07:15:09;21.91;118.99
584;HTU21D;27024;54.068;12.116;2023-07-16T07:17:39;22.05;118.99
584;HTU21D;27024;54.068;12.116;2023-07-16T07:20:09;22.17;118.99
584;HTU21D;27024;54.068;12.116;2023-07-16T07:22:36;22.18;118.99
584;HTU21D;27024;54.068;12.116;2023-07-16T07:25:04;22.09;118.99
584;HTU21D;27024;54.068;12.116;2023-07-16T07:27:31;22.46;118.99
584;HTU21D;27024;54.068;12.116;2023-07-16T07:29:58;22.76;118.99
584;HTU21D;27024;54.068;12.116;2023-07-16T07:32:24;23.41;118.99
584;HTU21D;27024;54.068;12.116;2023-07-16T07:34:51;23.42;118.99
584;HTU21D;27024;54.068;12.116;2023-07-16T07:37:18;23.94;118.99
584;HTU21D;27024;54.068;12.116;2023-07-16T07:39:45;24.02;118.99
584;HTU21D;27024;54.068;12.116;2023-07-16T07:42:14;24.17;118.99
584;HTU21D;27024;54.068;12.116;2023-07-16T07:44:41;23.94;118.99
584;HTU21D;27024;54.068;12.116;2023-07-16T07:47:08;24.20;118.99
584;HTU21D;27024;54.068;12.116;2023-07-16T07:49:35;24.14;118.99
584;HTU21D;27024;54.068;12.116;2023-07-16T07:52:02;23.86;118.99
584;HTU21D;27024;54.068;12.116;2023-07-16T07:54:31;23.49;118.99
584;HTU21D;27024;54.068;12.116;2023-07-16T07:57:01;23.56;118.99
584;HTU21D;27024;54.068;12.116;2023-07-16T07:59:32;23.47;118.99
584;HTU21D;27024;54.068;12.116;2023-07-16T08:01:59;23.31;118.99
584;HTU21D;27024;54.068;12.116;2023-07-16T08:04:26;23.13;118.99
584;HTU21D;27024;54.068;12.116;2023-07-16T08:06:53;23.41;118.99
584;HTU21D;27024;54.068;12.116;2023-07-16T08:09:20;23.26;118.99
584;HTU21D;27024;54.068;12.116;2023-07-16T08:11:47;23.05;118.99
584;HTU21D;27024;54.068;12.116;2023-07-16T08:14:14;23.37;118.99
584;HTU21D;27024;54.068;12.116;2023-07-16T08:16:41;23.46;118.99
584;HTU21D;27024;54.068;12.116;2023-07-16T08:19:09;23.39;118.99
584;HTU21D;27024;54.068;12.116;2023-07-16T08:21:36;23.17;118.99
584;HTU21D;27024;54.068;12.116;2023-07-16T08:24:07;22.88;118.99
584;HTU21D;27024;54.068;12.116;2023-07-16T08:26:34;22.75;118.99
584;HTU21D;27024;54.068;12.116;2023-07-16T08:29:01;22.76;118.99
584;HTU21D;27024;54.068;12.116;2023-07-16T08:31:29;22.64;118.99
584;HTU21D;27024;54.068;12.116;2023-07-16T08:33:56;22.94;118.99
584;HTU21D;27024;54.068;12.116;2023-07-16T08:36:24;22.90;118.99
584;HTU21D;27024;54.068;12.116;2023-07-16T08:38:50;22.90;118.99
584;HTU21D;27024;54.068;12.116;2023-07-16T08:41:17;22.92;118.99
584;HTU21D;27024;54.068;12.116;2023-07-16T08:43:46;23.13;118.99
584;HTU21D;27024;54.068;12.116;2023-07-16T08:46:15;23.37;118.99
584;HTU21D;27024;54.068;12.116;2023-07-16T08:48:42;23.39;118.99
584;HTU21D;27024;54.068;12.116;2023-07-16T08:51:14;23.24;118.99
584;HTU21D;27024;54.068;12.116;2023-07-16T08:53:41;23.16;118.99
584;HTU21D;27024;54.068;12.116;2023-07-16T08:56:08;23.64;118.99
584;HTU21D;27024;54.068;12.116;2023-07-16T08:58:36;23.85;118.99
584;HTU21D;27024;54.068;12.116;2023-07-16T09:01:05;24.21;118.99
584;HTU21D;27024;54.068;12.116;2023-07-16T09:03:32;24.41;118.99
584;HTU21D;27024;54.068;12.116;2023-07-16T09:05:59;24.68;118.99
584;HTU21D;27024;54.068;12.116;2023-07-16T09:08:26;24.75;118.99
584;HTU21D;27024;54.068;12.116;2023-07-16T09:10:56;25.46;118.99
584;HTU21D;27024;54.068;12.116;2023-07-16T09:13:24;25.72;118.99
584;HTU21D;27024;54.068;12.116;2023-07-16T09:15:56;25.75;118.99
584;HTU21D;27024;54.068;12.116;2023-07-16T09:18:27;26.33;118.99
584;HTU21D;27024;54.068;12.116;2023-07-16T09:20:59;26.27;118.99
584;HTU21D;27024;54.068;12.116;2023-07-16T09:23:30;26.47;118.99
584;HTU21D;27024;54.068;12.116;2023-07-16T09:25:57;26.34;118.99
584;HTU21D;27024;54.068;12.116;2023-07-16T09:28:24;26.28;118.99
584;HTU21D;27024;54.068;12.116;2023-07-16T09:30:51;25.84;118.99
584;HTU21D;27024;54.068;12.116;2023-07-16T09:33:20;26.25;118.99
584;HTU21D;27024;54.068;12.116;2023-07-16T09:35:49;26.45;118.99
584;HTU21D;27024;54.068;12.116;2023-07-16T09:38:17;26.83;118.99
584;HTU21D;27024;54.068;12.116;2023-07-16T09:40:45;26.51;118.99
584;HTU21D;27024;54.068;12.116;2023-07-16T09:43:12;25.77;118.99
584;HTU21D;27024;54.068;12.116;2023-07-16T09:45:40;25.54;118.99
584;HTU21D;27024;54.068;12.116;2023-07-16T09:48:07;26.60;118.99
584;HTU21D;27024;54.068;12.116;2023-07-16T09:50:36;26.51;118.99
584;HTU21D;27024;54.068;12.116;2023-07-16T09:53:05;26.32;118.99
584;HTU21D;27024;54.068;12.116;2023-07-16T09:55:35;25.59;118.99
584;HTU21D;27024;54.068;12.116;2023-07-16T09:58:06;25.19;118.99
584;HTU21D;27024;54.068;12.116;2023-07-16T10:00:35;25.09;118.99
584;HTU21D;27024;54.068;12.116;2023-07-16T10:03:05;25.15;118.99
584;HTU21D;27024;54.068;12.116;2023-07-16T10:05:36;25.01;118.99
584;HTU21D;27024;54.068;12.116;2023-07-16T10:08:04;25.14;118.99
584;HTU21D;27024;54.068;12.116;2023-07-16T10:10:41;25.36;118.99
584;HTU21D;27024;54.068;12.116;2023-07-16T10:13:12;26.22;118.99
584;HTU21D;27024;54.068;12.116;2023-07-16T10:15:49;27.00;118.99
584;HTU21D;27024;54.068;12.116;2023-07-16T10:18:26;27.49;118.99
584;HTU21D;27024;54.068;12.116;2023-07-16T10:21:03;27.54;118.99
584;HTU21D;27024;54.068;12.116;2023-07-16T10:23:42;27.57;118.99
584;HTU21D;27024;54.068;12.116;2023-07-16T10:26:11;27.79;118.99
584;HTU21D;27024;54.068;12.116;2023-07-16T10:28:44;26.97;118.99
584;HTU21D;27024;54.068;12.116;2023-07-16T10:31:21;26.61;118.99
584;HTU21D;27024;54.068;12.116;2023-07-16T10:34:04;27.08;118.99
584;HTU21D;27024;54.068;12.116;2023-07-16T10:36:41;27.51;118.99
584;HTU21D;27024;54.068;12.116;2023-07-16T10:39:08;28.34;118.99
584;HTU21D;27024;54.068;12.116;2023-07-16T10:41:35;28.34;118.99
584;HTU21D;27024;54.068;12.116;2023-07-16T10:44:03;27.56;118.99
584;HTU21D;27024;54.068;12.116;2023-07-16T10:46:31;28.08;118.99
584;HTU21D;27024;54.068;12.116;2023-07-16T10:49:00;28.16;118.99
584;HTU21D;27024;54.068;12.116;2023-07-16T10:51:28;27.80;118.99
584;HTU21D;27024;54.068;12.116;2023-07-16T10:53:55;27.50;118.99
584;HTU21D;27024;54.068;12.116;2023-07-16T10:56:23;27.53;118.99
584;HTU21D;27024;54.068;12.116;2023-07-16T10:58:50;27.60;118.99
584;HTU21D;27024;54.068;12.116;2023-07-16T11:01:17;26.81;118.99
584;HTU21D;27024;54.068;12.116;2023-07-16T11:03:45;26.53;118.99
584;HTU21D;27024;54.068;12.116;2023-07-16T11:06:12;26.38;118.99
584;HTU21D;27024;54.068;12.116;2023-07-16T11:08:39;26.17;118.99
584;HTU21D;27024;54.068;12.116;2023-07-16T11:11:06;26.12;118.99
584;HTU21D;27024;54.068;12.116;2023-07-16T11:13:33;26.79;118.99
584;HTU21D;27024;54.068;12.116;2023-07-16T11:16:08;27.31;118.99
584;HTU21D;27024;54.068;12.116;2023-07-16T11:18:35;27.94;118.99
584;HTU21D;27024;54.068;12.116;2023-07-16T11:21:03;27.89;118.99
584;HTU21D;27024;54.068;12.116;2023-07-16T11:23:34;27.87;118.99
584;HTU21D;27024;54.068;12.116;2023-07-16T11:26:04;28.24;118.99
584;HTU21D;27024;54.068;12.116;2023-07-16T11:28:38;28.31;118.99
584;HTU21D;27024;54.068;12.116;2023-07-16T11:31:24;28.24;118.99
584;HTU21D;27024;54.068;12.116;2023-07-16T11:33:51;28.15;118.99
584;HTU21D;27024;54.068;12.116;2023-07-16T11:36:18;28.56;118.99
584;HTU21D;27024;54.068;12.116;2023-07-16T11:38:45;28.35;118.99
584;HTU21D;27024;54.068;12.116;2023-07-16T11:41:14;28.56;118.99
584;HTU21D;27024;54.068;12.116;2023-07-16T11:43:46;27.93;118.99
584;HTU21D;27024;54.068;12.116;2023-07-16T11:46:17;28.73;118.99
584;HTU21D;27024;54.068;12.116;2023-07-16T11:48:45;28.88;118.99
584;HTU21D;27024;54.068;12.116;2023-07-16T11:51:11;29.61;118.99
584;HTU21D;27024;54.068;12.116;2023-07-16T11:53:38;29.50;96.61
584;HTU21D;27024;54.068;12.116;2023-07-16T11:56:06;29.23;82.29
584;HTU21D;27024;54.068;12.116;2023-07-16T11:58:33;29.32;86.62
584;HTU21D;27024;54.068;12.116;2023-07-16T12:00:59;28.84;98.16
584;HTU21D;27024;54.068;12.116;2023-07-16T12:03:27;29.16;92.53
584;HTU21D;27024;54.068;12.116;2023-07-16T12:05:54;29.45;89.56
584;HTU21D;27024;54.068;12.116;2023-07-16T12:08:21;29.87;85.14
584;HTU21D;27024;54.068;12.116;2023-07-16T12:10:48;29.75;85.33
584;HTU21D;27024;54.068;12.116;2023-07-16T12:13:15;29.87;82.36
584;HTU21D;27024;54.068;12.116;2023-07-16T12:15:41;28.79;88.57
584;HTU21D;27024;54.068;12.116;2023-07-16T12:18:08;28.53;91.24
584;HTU21D;27024;54.068;12.116;2023-07-16T12:20:35;29.17;89.42
584;HTU21D;27024;54.068;12.116;2023-07-16T12:23:06;29.37;85.00
584;HTU21D;27024;54.068;12.116;2023-07-16T12:25:34;29.56;79.89
584;HTU21D;27024;54.068;12.116;2023-07-16T12:28:01;29.29;71.18
584;HTU21D;27024;54.068;12.116;2023-07-16T12:30:29;29.32;67.17
584;HTU21D;27024;54.068;12.116;2023-07-16T12:32:56;29.15;67.73
584;HTU21D;27024;54.068;12.116;2023-07-16T12:35:23;29.56;67.02
584;HTU21D;27024;54.068;12.116;2023-07-16T12:37:49;29.61;64.48
584;HTU21D;27024;54.068;12.116;2023-07-16T12:40:16;29.66;58.70
584;HTU21D;27024;54.068;12.116;2023-07-16T12:42:44;29.12;58.06
584;HTU21D;27024;54.068;12.116;2023-07-16T12:45:11;28.53;62.13
584;HTU21D;27024;54.068;12.116;2023-07-16T12:47:37;28.44;72.74
584;HTU21D;27024;54.068;12.116;2023-07-16T12:50:06;28.23;66.40
584;HTU21D;27024;54.068;12.116;2023-07-16T12:52:33;28.88;60.32
584;HTU21D;27024;54.068;12.116;2023-07-16T12:55:00;28.78;53.13
584;HTU21D;27024;54.068;12.116;2023-07-16T12:57:27;28.85;51.73
584;HTU21D;27024;54.068;12.116;2023-07-16T12:59:54;29.08;55.65
584;HTU21D;27024;54.068;12.116;2023-07-16T13:02:21;28.82;47.10
584;HTU21D;27024;54.068;12.116;2023-07-16T13:04:47;28.53;51.75
584;HTU21D;27024;54.068;12.116;2023-07-16T13:07:14;28.21;52.70
584;HTU21D;27024;54.068;12.116;2023-07-16T13:09:41;27.84;59.19
584;HTU21D;27024;54.068;12.116;2023-07-16T13:12:08;27.68;64.63
584;HTU21D;27024;54.068;12.116;2023-07-16T13:14:35;27.12;69.69
584;HTU21D;27024;54.068;12.116;2023-07-16T13:17:02;27.08;75.82
584;HTU21D;27024;54.068;12.116;2023-07-16T13:19:31;27.94;66.98
584;HTU21D;27024;54.068;12.116;2023-07-16T13:21:58;28.26;65.52
584;HTU21D;27024;54.068;12.116;2023-07-16T13:24:24;28.27;60.68
584;HTU21D;27024;54.068;12.116;2023-07-16T13:26:52;28.47;63.14
584;HTU21D;27024;54.068;12.116;2023-07-16T13:29:19;28.15;70.35
584;HTU21D;27024;54.068;12.116;2023-07-16T13:31:46;27.67;66.08
584;HTU21D;27024;54.068;12.116;2023-07-16T13:34:13;27.64;70.63
584;HTU21D;27024;54.068;12.116;2023-07-16T13:36:40;27.49;70.25
584;HTU21D;27024;54.068;12.116;2023-07-16T13:39:07;27.25;75.64
584;HTU21D;27024;54.068;12.116;2023-07-16T13:41:34;27.07;75.54
584;HTU21D;27024;54.068;12.116;2023-07-16T13:44:01;26.84;78.61
584;HTU21D;27024;54.068;12.116;2023-07-16T13:46:28;27.11;78.17
584;HTU21D;27024;54.068;12.116;2023-07-16T13:48:55;27.15;74.83
584;HTU21D;27024;54.068;12.116;2023-07-16T13:51:25;27.04;78.53
584;HTU21D;27024;54.068;12.116;2023-07-16T13:53:52;26.92;76.68
584;HTU21D;27024;54.068;12.116;2023-07-16T13:56:19;26.95;74.47
584;HTU21D;27024;54.068;12.116;2023-07-16T13:58:46;26.57;79.34
584;HTU21D;27024;54.068;12.116;2023-07-16T14:01:14;26.48;81.33
584;HTU21D;27024;54.068;12.116;2023-07-16T14:03:41;26.56;76.79
584;HTU21D;27024;54.068;12.116;2023-07-16T14:06:08;26.68;80.46
584;HTU21D;27024;54.068;12.116;2023-07-16T14:08:35;26.75;90.64
584;HTU21D;27024;54.068;12.116;2023-07-16T14:11:02;26.34;96.00
584;HTU21D;27024;54.068;12.116;2023-07-16T14:13:29;26.20;89.32
584;HTU21D;27024;54.068;12.116;2023-07-16T14:15:56;26.12;91.37
584;HTU21D;27024;54.068;12.116;2023-07-16T14:18:23;25.97;92.41
584;HTU21D;27024;54.068;12.116;2023-07-16T14:20:50;25.90;92.78
584;HTU21D;27024;54.068;12.116;2023-07-16T14:23:17;25.95;92.95
584;HTU21D;27024;54.068;12.116;2023-07-16T14:25:44;26.06;91.83
584;HTU21D;27024;54.068;12.116;2023-07-16T14:28:11;26.21;87.79
584;HTU21D;27024;54.068;12.116;2023-07-16T14:30:38;25.97;92.67
584;HTU21D;27024;54.068;12.116;2023-07-16T14:33:05;25.82;94.11
584;HTU21D;27024;54.068;12.116;2023-07-16T14:35:33;26.30;85.84
584;HTU21D;27024;54.068;12.116;2023-07-16T14:38:03;26.73;83.78
584;HTU21D;27024;54.068;12.116;2023-07-16T14:40:33;27.16;87.28
584;HTU21D;27024;54.068;12.116;2023-07-16T14:43:00;27.23;81.57
584;HTU21D;27024;54.068;12.116;2023-07-16T14:45:28;27.74;77.18
584;HTU21D;27024;54.068;12.116;2023-07-16T14:47:56;28.18;69.80
584;HTU21D;27024;54.068;12.116;2023-07-16T14:50:23;28.02;66.89
584;HTU21D;27024;54.068;12.116;2023-07-16T14:52:50;28.50;60.93
584;HTU21D;27024;54.068;12.116;2023-07-16T14:55:17;28.37;58.87
584;HTU21D;27024;54.068;12.116;2023-07-16T14:57:44;28.01;61.79
584;HTU21D;27024;54.068;12.116;2023-07-16T15:00:11;28.16;56.83
584;HTU21D;27024;54.068;12.116;2023-07-16T15:02:41;27.93;59.69
584;HTU21D;27024;54.068;12.116;2023-07-16T15:05:09;27.60;59.15
584;HTU21D;27024;54.068;12.116;2023-07-16T15:07:36;27.70;64.89
584;HTU21D;27024;54.068;12.116;2023-07-16T15:10:05;28.21;61.70
584;HTU21D;27024;54.068;12.116;2023-07-16T15:12:50;27.88;55.89
584;HTU21D;27024;54.068;12.116;2023-07-16T15:15:26;27.85;63.06
584;HTU21D;27024;54.068;12.116;2023-07-16T15:18:03;27.73;58.48
584;HTU21D;27024;54.068;12.116;2023-07-16T15:20:33;27.32;63.95
584;HTU21D;27024;54.068;12.116;2023-07-16T15:23:20;26.99;63.66
584;HTU21D;27024;54.068;12.116;2023-07-16T15:25:48;26.70;67.72
584;HTU21D;27024;54.068;12.116;2023-07-16T15:28:16;26.61;67.36